createdAt,value
2023-01-17T00:01:34.251Z,97278.06
2023-01-17T00:04:20.420Z,97278.03
2023-01-17T00:07:05.675Z,97285.09
2023-01-17T00:09:50.683Z,97289.25
2023-01-17T00:12:17.969Z,97281.50
2023-01-17T00:14:44.898Z,97294.31
2023-01-17T00:17:11.524Z,97300.34
2023-01-17T00:19:57.124Z,97310.53
2023-01-17T00:22:48.170Z,97297.72
2023-01-17T00:25:45.652Z,97316.19
2023-01-17T00:28:12.706Z,97323.00
2023-01-17T00:30:39.276Z,97317.59
2023-01-17T00:33:06.103Z,97327.72
2023-01-17T00:35:33.862Z,97333.63
2023-01-17T00:38:05.085Z,97334.22
2023-01-17T00:40:33.021Z,97333.97
2023-01-17T00:43:18.328Z,97343.63
2023-01-17T00:46:04.699Z,97338.69
2023-01-17T00:48:50.509Z,97358.28
2023-01-17T00:51:35.786Z,97356.53
2023-01-17T00:54:21.403Z,97355.88
2023-01-17T00:57:06.557Z,97369.50
2023-01-17T00:59:51.859Z,97362.81
2023-01-17T01:02:37.741Z,97369.19
2023-01-17T01:05:23.674Z,97379.53
2023-01-17T01:08:08.887Z,97377.16
2023-01-17T01:10:54.321Z,97375.13
2023-01-17T01:13:46.017Z,97380.38
2023-01-17T01:16:32.617Z,97386.25
2023-01-17T01:19:18.109Z,97389.81
2023-01-17T01:22:03.618Z,97394.19
2023-01-17T01:24:48.899Z,97395.22
2023-01-17T01:27:34.585Z,97399.00
2023-01-17T01:30:19.844Z,97406.91
2023-01-17T01:33:05.134Z,97406.16
2023-01-17T01:35:31.702Z,97408.78
2023-01-17T01:37:58.325Z,97406.91
2023-01-17T01:40:25.056Z,97404.59
2023-01-17T01:42:53.092Z,97407.81
2023-01-17T01:45:25.401Z,97406.13
2023-01-17T01:48:05.601Z,97413.09
2023-01-17T01:50:35.046Z,97414.53
2023-01-17T01:53:04.613Z,97421.56
2023-01-17T01:55:34.603Z,97415.63
2023-01-17T01:58:22.148Z,97412.13
2023-01-17T02:00:49.343Z,97420.72
2023-01-17T02:03:29.402Z,97423.88
2023-01-17T02:06:00.868Z,97424.78
2023-01-17T02:08:28.019Z,97429.34
2023-01-17T02:10:56.158Z,97444.13
2023-01-17T02:13:22.791Z,97433.81
2023-01-17T02:16:14.047Z,97444.00
2023-01-17T02:19:26.312Z,97444.06
2023-01-17T02:21:58.884Z,97449.00
2023-01-17T02:24:45.001Z,97463.09
2023-01-17T02:27:11.515Z,97461.38
2023-01-17T02:29:56.726Z,97455.97
2023-01-17T02:32:32.530Z,97466.50
2023-01-17T02:35:20.347Z,97469.47
2023-01-17T02:38:00.524Z,97470.00
2023-01-17T02:40:33.006Z,97474.38
2023-01-17T02:43:08.267Z,97481.06
2023-01-17T02:45:34.978Z,97481.81
2023-01-17T02:48:01.738Z,97479.16
2023-01-17T02:50:39.517Z,97493.59
2023-01-17T02:53:27.747Z,97503.25
2023-01-17T02:56:14.588Z,97504.41
2023-01-17T02:59:05.720Z,97510.47
2023-01-17T03:02:00.553Z,97519.88
2023-01-17T03:04:27.336Z,97519.66
2023-01-17T03:06:58.769Z,97515.41
2023-01-17T03:09:26.883Z,97535.09
2023-01-17T03:11:53.756Z,97535.16
2023-01-17T03:14:20.519Z,97543.63
2023-01-17T03:16:47.532Z,97549.84
2023-01-17T03:19:14.756Z,97542.16
2023-01-17T03:21:41.362Z,97557.47
2023-01-17T03:24:08.244Z,97570.53
2023-01-17T03:26:34.875Z,97572.25
2023-01-17T03:29:02.391Z,97580.72
2023-01-17T03:31:29.008Z,97590.13
2023-01-17T03:33:55.611Z,97603.91
2023-01-17T03:36:22.243Z,97598.78
2023-01-17T03:38:48.841Z,97600.53
2023-01-17T03:41:15.388Z,97606.50
2023-01-17T03:43:41.926Z,97617.81
2023-01-17T03:46:21.901Z,97628.13
2023-01-17T03:48:48.587Z,97622.00
2023-01-17T03:51:16.143Z,97630.56
2023-01-17T03:53:43.033Z,97638.31
2023-01-17T03:56:09.623Z,97639.13
2023-01-17T03:58:36.161Z,97654.59
2023-01-17T04:01:02.829Z,97651.19
2023-01-17T04:03:29.651Z,97664.94
2023-01-17T04:05:56.431Z,97669.22
2023-01-17T04:08:23.177Z,97670.06
2023-01-17T04:10:49.787Z,97671.81
2023-01-17T04:13:16.998Z,97662.38
2023-01-17T04:15:48.370Z,97679.59
2023-01-17T04:18:17.279Z,97686.44
2023-01-17T04:20:44.324Z,97692.38
2023-01-17T04:23:11.102Z,97689.03
2023-01-17T04:25:37.718Z,97698.50
2023-01-17T04:28:05.234Z,97705.31
2023-01-17T04:30:33.031Z,97708.75
2023-01-17T04:33:00.194Z,97703.63
2023-01-17T04:35:28.931Z,97727.59
2023-01-17T04:37:55.558Z,97719.03
2023-01-17T04:40:22.319Z,97725.84
2023-01-17T04:42:48.922Z,97735.28
2023-01-17T04:45:16.454Z,97738.66
2023-01-17T04:47:43.270Z,97750.66
2023-01-17T04:50:13.134Z,97744.69
2023-01-17T04:52:40.332Z,97754.94
2023-01-17T04:55:07.620Z,97768.59
2023-01-17T04:57:34.205Z,97754.88
2023-01-17T05:00:00.901Z,97762.63
2023-01-17T05:02:27.544Z,97762.59
2023-01-17T05:04:54.196Z,97777.16
2023-01-17T05:07:20.887Z,97769.44
2023-01-17T05:09:47.692Z,97774.59
2023-01-17T05:12:14.923Z,97773.72
2023-01-17T05:14:41.450Z,97778.00
2023-01-17T05:17:08.200Z,97790.81
2023-01-17T05:19:34.827Z,97801.06
2023-01-17T05:22:04.034Z,97806.22
2023-01-17T05:24:32.248Z,97803.66
2023-01-17T05:27:03.076Z,97803.66
2023-01-17T05:29:30.661Z,97814.78
2023-01-17T05:31:57.791Z,97821.59
2023-01-17T05:34:24.955Z,97822.44
2023-01-17T05:36:51.590Z,97818.19
2023-01-17T05:39:18.299Z,97826.72
2023-01-17T05:41:46.183Z,97832.75
2023-01-17T05:44:13.159Z,97837.00
2023-01-17T05:46:40.721Z,97827.59
2023-01-17T05:49:07.518Z,97838.72
2023-01-17T05:51:37.776Z,97842.13
2023-01-17T05:54:05.091Z,97850.66
2023-01-17T05:56:31.957Z,97846.38
2023-01-17T05:58:58.574Z,97854.06
2023-01-17T06:01:25.177Z,97860.03
2023-01-17T06:03:51.939Z,97865.19
2023-01-17T06:06:18.537Z,97867.78
2023-01-17T06:08:45.048Z,97869.47
2023-01-17T06:11:11.613Z,97869.47
2023-01-17T06:13:38.305Z,97873.78
2023-01-17T06:16:05.160Z,97877.19
2023-01-17T06:18:32.155Z,97883.13
2023-01-17T06:20:58.853Z,97881.44
2023-01-17T06:23:26.066Z,97887.44
2023-01-17T06:25:52.719Z,97890.00
2023-01-17T06:28:21.868Z,97895.94
2023-01-17T06:30:49.119Z,97901.97
2023-01-17T06:33:16.081Z,97902.81
2023-01-17T06:35:50.537Z,97901.16
2023-01-17T06:38:17.394Z,97896.91
2023-01-17T06:40:44.024Z,97907.13
2023-01-17T06:43:10.681Z,97907.13
2023-01-17T06:45:37.398Z,97912.28
2023-01-17T06:48:05.356Z,97906.28
2023-01-17T06:50:33.393Z,97918.22
2023-01-17T06:53:04.997Z,97917.38
2023-01-17T06:55:33.743Z,97929.34
2023-01-17T06:58:02.511Z,97936.16
2023-01-17T07:00:31.069Z,97944.72
2023-01-17T07:02:57.896Z,97945.63
2023-01-17T07:05:24.580Z,97949.88
2023-01-17T07:07:51.220Z,97959.31
2023-01-17T07:10:17.952Z,97963.59
2023-01-17T07:12:44.563Z,97970.47
2023-01-17T07:15:12.013Z,97966.09
2023-01-17T07:17:38.979Z,97967.00
2023-01-17T07:20:06.414Z,97973.81
2023-01-17T07:22:33.061Z,97983.28
2023-01-17T07:24:59.671Z,97992.63
2023-01-17T07:27:27.717Z,97980.66
2023-01-17T07:29:54.505Z,97990.06
2023-01-17T07:32:21.259Z,98001.19
2023-01-17T07:34:48.306Z,98002.88
2023-01-17T07:37:15.414Z,98003.78
2023-01-17T07:39:42.416Z,98004.66
2023-01-17T07:42:09.332Z,98013.22
2023-01-17T07:44:36.210Z,98014.94
2023-01-17T07:47:04.271Z,98016.66
2023-01-17T07:49:31.105Z,98011.44
2023-01-17T07:51:57.719Z,98010.59
2023-01-17T07:54:24.350Z,98011.53
2023-01-17T07:56:50.951Z,98010.66
2023-01-17T07:59:18.170Z,98014.94
2023-01-17T08:01:44.906Z,98014.03
2023-01-17T08:04:11.785Z,98015.75
2023-01-17T08:06:42.104Z,98015.78
2023-01-17T08:09:08.730Z,98014.94
2023-01-17T08:11:35.312Z,98023.50
2023-01-17T08:14:01.885Z,98012.41
2023-01-17T08:16:29.624Z,98012.28
2023-01-17T08:18:56.562Z,98019.19
2023-01-17T08:21:23.654Z,98026.88
2023-01-17T08:23:51.645Z,98020.03
2023-01-17T08:26:22.872Z,98017.41
2023-01-17T08:28:55.815Z,98021.66
2023-01-17T08:31:23.254Z,98026.84
2023-01-17T08:33:50.802Z,98030.06
2023-01-17T08:36:17.776Z,98018.25
2023-01-17T08:38:44.419Z,98024.25
2023-01-17T08:41:12.935Z,98030.94
2023-01-17T08:43:39.910Z,98023.22
2023-01-17T08:46:06.591Z,98032.81
2023-01-17T08:48:33.260Z,98030.19
2023-01-17T08:51:01.676Z,98026.81
2023-01-17T08:53:28.557Z,98030.22
2023-01-17T08:55:59.877Z,98038.72
2023-01-17T08:58:30.323Z,98049.94
2023-01-17T09:01:05.857Z,98046.41
2023-01-17T09:03:33.809Z,98042.19
2023-01-17T09:06:07.768Z,98037.97
2023-01-17T09:08:34.899Z,98028.56
2023-01-17T09:11:10.335Z,98036.13
2023-01-17T09:13:37.421Z,98034.50
2023-01-17T09:16:04.488Z,98038.84
2023-01-17T09:18:32.341Z,98030.28
2023-01-17T09:21:01.897Z,98033.66
2023-01-17T09:23:29.874Z,98043.78
2023-01-17T09:25:58.847Z,98039.63
2023-01-17T09:28:26.939Z,98043.97
2023-01-17T09:30:54.215Z,98044.00
2023-01-17T09:33:21.615Z,98047.41
2023-01-17T09:35:48.247Z,98048.28
2023-01-17T09:38:14.929Z,98049.94
2023-01-17T09:40:47.368Z,98057.66
2023-01-17T09:43:40.855Z,98057.59
2023-01-17T09:46:22.468Z,98061.91
2023-01-17T09:49:01.908Z,98072.16
2023-01-17T09:51:28.613Z,98076.38
2023-01-17T09:53:55.660Z,98078.03
2023-01-17T09:56:31.825Z,98081.44
2023-01-17T09:59:01.506Z,98087.59
2023-01-17T10:01:40.808Z,98082.44
2023-01-17T10:04:38.997Z,98080.84
2023-01-17T10:07:33.543Z,98079.16
2023-01-17T10:10:18.873Z,98080.91
2023-01-17T10:13:17.696Z,98082.63
2023-01-17T10:15:53.175Z,98088.59
2023-01-17T10:18:30.013Z,98091.19
2023-01-17T10:21:14.637Z,98090.19
2023-01-17T10:24:28.433Z,98085.13
2023-01-17T10:26:58.699Z,98093.66
2023-01-17T10:29:30.854Z,98085.16
2023-01-17T10:32:01.574Z,98090.31
2023-01-17T10:34:30.708Z,98091.09
2023-01-17T10:37:11.890Z,98085.19
2023-01-17T10:39:39.341Z,98081.78
2023-01-17T10:42:44.200Z,98090.34
2023-01-17T10:45:25.571Z,98086.06
2023-01-17T10:48:02.045Z,98093.75
2023-01-17T10:50:33.297Z,98098.03
2023-01-17T10:53:10.869Z,98101.47
2023-01-17T10:55:53.327Z,98102.34
2023-01-17T10:58:20.349Z,98098.03
2023-01-17T11:01:01.693Z,98098.06
2023-01-17T11:03:29.580Z,98104.91
2023-01-17T11:06:20.014Z,98105.78
2023-01-17T11:08:58.016Z,98104.06
2023-01-17T11:11:30.738Z,98108.38
2023-01-17T11:14:04.646Z,98098.06
2023-01-17T11:16:32.329Z,98104.97
2023-01-17T11:19:36.109Z,98106.66
2023-01-17T11:22:06.152Z,98093.81
2023-01-17T11:24:37.748Z,98101.50
2023-01-17T11:27:22.823Z,98099.75
2023-01-17T11:30:04.337Z,98098.06
2023-01-17T11:32:34.865Z,98090.25
2023-01-17T11:35:07.983Z,98098.88
2023-01-17T11:37:36.037Z,98096.28
2023-01-17T11:40:28.452Z,98096.31
2023-01-17T11:43:06.070Z,98103.13
2023-01-17T11:45:34.323Z,98098.94
2023-01-17T11:48:10.988Z,98094.66
2023-01-17T11:50:58.501Z,98091.19
2023-01-17T11:53:28.263Z,98095.47
2023-01-17T11:56:11.175Z,98090.31
2023-01-17T11:58:41.777Z,98093.78
2023-01-17T12:01:37.131Z,98095.50
2023-01-17T12:04:24.189Z,98090.38
2023-01-17T12:07:10.906Z,98080.94
2023-01-17T12:09:46.257Z,98091.19
2023-01-17T12:12:56.361Z,98087.81
2023-01-17T12:15:30.111Z,98085.25
2023-01-17T12:18:16.540Z,98086.09
2023-01-17T12:20:59.339Z,98076.66
2023-01-17T12:23:49.114Z,98086.09
2023-01-17T12:26:45.623Z,98090.34
2023-01-17T12:29:43.516Z,98083.50
2023-01-17T12:32:35.072Z,98090.38
2023-01-17T12:35:04.699Z,98091.25
2023-01-17T12:37:35.062Z,98087.78
2023-01-17T12:40:27.285Z,98092.94
2023-01-17T12:43:21.867Z,98097.22
2023-01-17T12:45:51.231Z,98084.38
2023-01-17T12:48:19.738Z,98082.66
2023-01-17T12:51:05.659Z,98074.06
2023-01-17T12:53:40.422Z,98075.78
2023-01-17T12:56:25.382Z,98072.28
2023-01-17T12:58:56.580Z,98070.47
2023-01-17T13:01:39.706Z,98082.50
2023-01-17T13:04:16.836Z,98088.56
2023-01-17T13:06:46.535Z,98085.09
2023-01-17T13:09:19.108Z,98085.88
2023-01-17T13:11:56.766Z,98079.84
2023-01-17T13:14:23.699Z,98086.66
2023-01-17T13:16:58.628Z,98099.53
2023-01-17T13:19:25.202Z,98086.72
2023-01-17T13:21:52.680Z,98096.06
2023-01-17T13:24:27.918Z,98096.00
2023-01-17T13:27:30.607Z,98097.69
2023-01-17T13:30:17.886Z,98104.56
2023-01-17T13:33:01.504Z,98102.69
2023-01-17T13:35:49.205Z,98098.41
2023-01-17T13:38:30.423Z,98100.09
2023-01-17T13:41:07.655Z,98090.91
2023-01-17T13:43:40.423Z,98108.06
2023-01-17T13:46:07.498Z,98102.97
2023-01-17T13:48:38.515Z,98104.00
2023-01-17T13:51:10.329Z,98104.75
2023-01-17T13:53:37.091Z,98098.75
2023-01-17T13:56:19.026Z,98110.75
2023-01-17T13:58:54.809Z,98109.06
2023-01-17T14:01:24.698Z,98110.81
2023-01-17T14:04:32.263Z,98111.66
2023-01-17T14:07:26.357Z,98098.81
2023-01-17T14:09:53.219Z,98104.69
2023-01-17T14:12:21.172Z,98107.22
2023-01-17T14:14:51.147Z,98108.06
2023-01-17T14:17:22.717Z,98107.94
2023-01-17T14:19:55.848Z,98104.69
2023-01-17T14:22:28.511Z,98097.88
2023-01-17T14:25:20.065Z,98101.41
2023-01-17T14:27:53.632Z,98106.56
2023-01-17T14:30:33.883Z,98106.41
2023-01-17T14:33:04.767Z,98101.19
2023-01-17T14:35:54.140Z,98108.84
2023-01-17T14:38:26.927Z,98100.34
2023-01-17T14:41:03.545Z,98097.94
2023-01-17T14:43:33.093Z,98099.53
2023-01-17T14:46:01.751Z,98104.75
2023-01-17T14:48:28.961Z,98109.78
2023-01-17T14:50:59.956Z,98103.84
2023-01-17T14:53:31.420Z,98098.56
2023-01-17T14:56:12.049Z,98111.50
2023-01-17T14:58:41.724Z,98106.41
2023-01-17T15:01:21.750Z,98105.50
2023-01-17T15:03:51.413Z,98102.22
2023-01-17T15:06:17.879Z,98110.88
2023-01-17T15:08:45.071Z,98099.66
2023-01-17T15:11:19.745Z,98111.63
2023-01-17T15:13:49.839Z,98110.78
2023-01-17T15:16:22.172Z,98114.16
2023-01-17T15:18:49.531Z,98110.69
2023-01-17T15:21:19.471Z,98109.94
2023-01-17T15:23:53.095Z,98127.06
2023-01-17T15:26:23.432Z,98120.19
2023-01-17T15:28:50.808Z,98126.19
2023-01-17T15:31:39.782Z,98124.59
2023-01-17T15:34:08.923Z,98130.56
2023-01-17T15:36:35.985Z,98127.13
2023-01-17T15:39:07.468Z,98127.91
2023-01-17T15:41:38.060Z,98133.97
2023-01-17T15:44:05.889Z,98127.13
2023-01-17T15:46:42.694Z,98122.88
2023-01-17T15:49:19.481Z,98127.22
2023-01-17T15:51:55.137Z,98128.91
2023-01-17T15:54:28.837Z,98139.22
2023-01-17T15:57:02.745Z,98140.06
2023-01-17T15:59:54.818Z,98136.63
2023-01-17T16:02:30.026Z,98144.38
2023-01-17T16:04:57.611Z,98152.06
2023-01-17T16:07:34.074Z,98150.38
2023-01-17T16:10:35.613Z,98145.22
2023-01-17T16:13:06.696Z,98146.09
2023-01-17T16:15:35.224Z,98146.94
2023-01-17T16:18:13.965Z,98152.94
2023-01-17T16:20:46.516Z,98153.78
2023-01-17T16:23:13.206Z,98153.78
2023-01-17T16:25:39.829Z,98163.19
2023-01-17T16:28:06.563Z,98165.75
2023-01-17T16:30:33.905Z,98166.63
2023-01-17T16:33:00.835Z,98167.44
2023-01-17T16:35:30.482Z,98166.56
2023-01-17T16:37:56.901Z,98170.84
2023-01-17T16:40:26.448Z,98167.38
2023-01-17T16:42:55.806Z,98173.41
2023-01-17T16:45:23.548Z,98166.50
2023-01-17T16:47:51.672Z,98170.75
2023-01-17T16:50:24.438Z,98186.97
2023-01-17T16:52:52.847Z,98189.53
2023-01-17T16:55:23.211Z,98184.38
2023-01-17T16:57:51.294Z,98180.06
2023-01-17T17:00:19.262Z,98191.13
2023-01-17T17:02:50.271Z,98190.28
2023-01-17T17:05:17.019Z,98187.63
2023-01-17T17:07:45.474Z,98197.84
2023-01-17T17:10:15.829Z,98198.72
2023-01-17T17:12:42.967Z,98203.84
2023-01-17T17:15:10.601Z,98203.78
2023-01-17T17:17:39.269Z,98205.44
2023-01-17T17:20:10.003Z,98209.69
2023-01-17T17:22:36.742Z,98192.56
2023-01-17T17:25:03.855Z,98197.72
2023-01-17T17:27:30.416Z,98204.44
2023-01-17T17:29:57.038Z,98203.63
2023-01-17T17:32:23.959Z,98201.03
2023-01-17T17:34:53.280Z,98199.28
2023-01-17T17:37:21.390Z,98209.53
2023-01-17T17:39:48.041Z,98207.88
2023-01-17T17:42:15.528Z,98209.59
2023-01-17T17:44:42.068Z,98214.66
2023-01-17T17:47:09.265Z,98213.81
2023-01-17T17:49:35.805Z,98214.53
2023-01-17T17:52:08.930Z,98218.91
2023-01-17T17:54:35.918Z,98215.47
2023-01-17T17:57:02.429Z,98222.31
2023-01-17T17:59:29.852Z,98216.25
2023-01-17T18:01:57.058Z,98220.44
2023-01-17T18:04:23.730Z,98214.34
2023-01-17T18:06:50.315Z,98219.38
2023-01-17T18:09:17.289Z,98227.63
2023-01-17T18:11:44.728Z,98224.13
2023-01-17T18:14:13.981Z,98226.56
2023-01-17T18:16:43.569Z,98231.06
2023-01-17T18:19:14.821Z,98227.66
2023-01-17T18:21:41.498Z,98238.75
2023-01-17T18:24:11.298Z,98249.94
2023-01-17T18:26:43.695Z,98243.16
2023-01-17T18:29:14.775Z,98250.00
2023-01-17T18:31:43.010Z,98247.47
2023-01-17T18:34:12.912Z,98249.19
2023-01-17T18:36:40.284Z,98251.69
2023-01-17T18:39:12.860Z,98254.19
2023-01-17T18:41:39.700Z,98265.31
2023-01-17T18:44:06.549Z,98258.34
2023-01-17T18:46:34.058Z,98264.25
2023-01-17T18:49:00.907Z,98264.41
2023-01-17T18:51:29.608Z,98278.13
2023-01-17T18:53:56.288Z,98278.88
2023-01-17T18:56:23.056Z,98278.88
2023-01-17T18:58:50.667Z,98281.56
2023-01-17T19:01:20.543Z,98275.56
2023-01-17T19:03:49.263Z,98279.78
2023-01-17T19:06:20.280Z,98281.59
2023-01-17T19:08:49.201Z,98276.38
2023-01-17T19:11:15.766Z,98278.00
2023-01-17T19:13:42.365Z,98282.22
2023-01-17T19:16:14.312Z,98284.94
2023-01-17T19:18:41.380Z,98285.69
2023-01-17T19:21:14.112Z,98285.72
2023-01-17T19:23:41.360Z,98284.88
2023-01-17T19:26:09.358Z,98290.91
2023-01-17T19:28:41.521Z,98286.38
2023-01-17T19:31:10.830Z,98288.94
2023-01-17T19:33:39.660Z,98288.06
2023-01-17T19:36:09.105Z,98292.16
2023-01-17T19:38:37.032Z,98294.66
2023-01-17T19:41:26.503Z,98298.91
2023-01-17T19:43:54.278Z,98306.59
2023-01-17T19:46:22.215Z,98303.22
2023-01-17T19:48:48.877Z,98303.22
2023-01-17T19:51:16.728Z,98301.47
2023-01-17T19:53:43.389Z,98297.22
2023-01-17T19:56:11.951Z,98303.19
2023-01-17T19:58:38.879Z,98304.88
2023-01-17T20:01:09.733Z,98300.47
2023-01-17T20:03:37.672Z,98290.84
2023-01-17T20:06:09.393Z,98295.88
2023-01-17T20:08:36.761Z,98304.47
2023-01-17T20:11:09.995Z,98308.00
2023-01-17T20:13:37.076Z,98311.34
2023-01-17T20:16:09.031Z,98316.44
2023-01-17T20:18:36.528Z,98321.50
2023-01-17T20:21:20.745Z,98324.91
2023-01-17T20:23:49.046Z,98320.69
2023-01-17T20:26:18.392Z,98322.97
2023-01-17T20:28:47.087Z,98322.97
2023-01-17T20:31:16.356Z,98327.91
2023-01-17T20:33:45.143Z,98337.34
2023-01-17T20:36:14.936Z,98339.91
2023-01-17T20:38:45.419Z,98336.63
2023-01-17T20:41:13.503Z,98347.75
2023-01-17T20:43:44.496Z,98339.19
2023-01-17T20:46:12.002Z,98338.41
2023-01-17T20:48:44.988Z,98340.00
2023-01-17T20:51:12.541Z,98345.81
2023-01-17T20:53:41.612Z,98346.63
2023-01-17T20:56:08.784Z,98357.50
2023-01-17T20:58:36.495Z,98359.25
2023-01-17T21:01:03.257Z,98357.72
2023-01-17T21:03:30.139Z,98362.75
2023-01-17T21:06:05.893Z,98366.09
2023-01-17T21:08:34.680Z,98367.53
2023-01-17T21:11:01.678Z,98369.34
2023-01-17T21:13:28.347Z,98371.78
2023-01-17T21:15:55.192Z,98372.66
2023-01-17T21:18:24.105Z,98379.56
2023-01-17T21:20:51.072Z,98364.22
2023-01-17T21:23:18.363Z,98369.47
2023-01-17T21:25:55.812Z,98376.38
2023-01-17T21:28:25.344Z,98374.66
2023-01-17T21:30:55.683Z,98378.03
2023-01-17T21:33:24.625Z,98376.25
2023-01-17T21:35:51.850Z,98377.25
2023-01-17T21:38:19.013Z,98380.75
2023-01-17T21:40:45.911Z,98383.94
2023-01-17T21:43:13.134Z,98385.66
2023-01-17T21:45:41.065Z,98383.00
2023-01-17T21:48:12.161Z,98381.28
2023-01-17T21:50:39.149Z,98374.34
2023-01-17T21:53:05.822Z,98379.63
2023-01-17T21:55:51.010Z,98378.66
2023-01-17T21:58:36.318Z,98384.56
2023-01-17T22:01:16.100Z,98389.63
2023-01-17T22:03:43.769Z,98387.91
2023-01-17T22:06:10.331Z,98383.56
2023-01-17T22:08:37.347Z,98382.63
2023-01-17T22:11:10.921Z,98391.06
2023-01-17T22:13:39.164Z,98394.50
2023-01-17T22:16:08.650Z,98397.88
2023-01-17T22:18:37.067Z,98401.19
2023-01-17T22:21:07.229Z,98402.94
2023-01-17T22:23:34.940Z,98406.25
2023-01-17T22:26:06.852Z,98402.84
2023-01-17T22:28:33.824Z,98405.44
2023-01-17T22:31:08.213Z,98402.94
2023-01-17T22:33:36.218Z,98413.22
2023-01-17T22:36:03.026Z,98413.28
2023-01-17T22:38:29.989Z,98419.00
2023-01-17T22:41:06.834Z,98412.94
2023-01-17T22:43:38.262Z,98410.41
2023-01-17T22:46:06.585Z,98419.75
2023-01-17T22:48:33.912Z,98423.06
2023-01-17T22:51:02.441Z,98422.31
2023-01-17T22:53:29.912Z,98424.03
2023-01-17T22:56:05.755Z,98429.94
2023-01-17T22:58:34.000Z,98424.63
2023-01-17T23:01:11.493Z,98422.97
2023-01-17T23:03:40.803Z,98424.44
2023-01-17T23:06:12.416Z,98431.97
2023-01-17T23:08:41.505Z,98426.91
2023-01-17T23:11:43.639Z,98438.38
2023-01-17T23:14:21.138Z,98440.41
2023-01-17T23:17:10.304Z,98431.22
2023-01-17T23:19:39.192Z,98436.78
2023-01-17T23:22:21.319Z,98436.06
2023-01-17T23:24:49.232Z,98440.31
2023-01-17T23:27:48.418Z,98438.69
2023-01-17T23:30:28.655Z,98434.16
2023-01-17T23:32:58.465Z,98442.91
2023-01-17T23:35:27.651Z,98446.09
2023-01-17T23:38:13.405Z,98439.84
2023-01-17T23:40:41.029Z,98435.72
2023-01-17T23:43:23.839Z,98446.09
2023-01-17T23:45:54.737Z,98438.97
2023-01-17T23:48:24.628Z,98449.19
2023-01-17T23:50:51.826Z,98446.75
2023-01-17T23:53:24.108Z,98449.03
2023-01-17T23:55:53.689Z,98445.25
2023-01-17T23:58:21.085Z,98448.69
